createdAt,value
2022-12-22T00:02:30.318Z,3.85
2022-12-22T00:05:15.823Z,3.47
2022-12-22T00:08:00.916Z,3.20
2022-12-22T00:10:46.309Z,3.33
2022-12-22T00:13:33.721Z,3.70
2022-12-22T00:16:19.041Z,3.90
2022-12-22T00:19:03.963Z,4.07
2022-12-22T00:21:49.794Z,3.40
2022-12-22T00:24:34.992Z,3.88
2022-12-22T00:27:20.247Z,4.43
2022-12-22T00:30:05.413Z,4.00
2022-12-22T00:32:53.642Z,4.75
2022-12-22T00:35:42.783Z,4.25
2022-12-22T00:38:34.265Z,4.43
2022-12-22T00:41:19.689Z,4.50
2022-12-22T00:44:04.838Z,3.92
2022-12-22T00:46:51.832Z,4.00
2022-12-22T00:49:37.324Z,4.07
2022-12-22T00:52:23.179Z,3.67
2022-12-22T00:55:14.240Z,3.92
2022-12-22T00:58:01.659Z,4.15
2022-12-22T01:00:47.765Z,4.50
2022-12-22T01:03:33.324Z,3.83
2022-12-22T01:06:20.019Z,4.72
2022-12-22T01:09:05.767Z,3.58
2022-12-22T01:11:52.594Z,3.60
2022-12-22T01:14:37.786Z,2.80
2022-12-22T01:17:23.123Z,2.95
2022-12-22T01:20:08.223Z,2.47
2022-12-22T01:22:53.667Z,2.50
2022-12-22T01:25:39.179Z,2.55
2022-12-22T01:28:25.127Z,2.10
2022-12-22T01:31:09.983Z,2.40
2022-12-22T01:33:55.111Z,2.00
2022-12-22T01:36:40.148Z,1.90
2022-12-22T01:39:24.898Z,1.98
2022-12-22T01:42:10.141Z,1.70
2022-12-22T01:44:55.523Z,2.13
2022-12-22T01:47:43.860Z,1.58
2022-12-22T01:50:28.973Z,1.83
2022-12-22T01:53:19.625Z,2.10
2022-12-22T01:56:06.141Z,1.70
2022-12-22T01:58:57.447Z,2.50
2022-12-22T02:01:42.831Z,1.90
2022-12-22T02:04:28.467Z,2.00
2022-12-22T02:07:23.125Z,2.00
2022-12-22T02:10:21.698Z,2.45
2022-12-22T02:13:43.733Z,2.33
2022-12-22T02:16:45.058Z,2.45
2022-12-22T02:19:52.141Z,2.10
2022-12-22T02:23:06.534Z,2.45
2022-12-22T02:26:09.724Z,2.20
2022-12-22T02:28:55.625Z,2.35
2022-12-22T02:31:40.986Z,2.17
2022-12-22T02:34:33.129Z,2.58
2022-12-22T02:37:36.253Z,2.67
2022-12-22T02:40:41.610Z,2.75
2022-12-22T02:43:37.428Z,2.50
2022-12-22T02:46:48.383Z,2.83
2022-12-22T02:49:43.593Z,3.15
2022-12-22T02:52:37.859Z,3.60
2022-12-22T02:55:24.316Z,3.28
2022-12-22T02:58:10.500Z,3.75
2022-12-22T03:00:56.646Z,3.17
2022-12-22T03:03:42.324Z,3.97
2022-12-22T03:06:27.779Z,3.25
2022-12-22T03:09:13.187Z,3.17
2022-12-22T03:11:58.461Z,3.22
2022-12-22T03:14:43.845Z,3.00
2022-12-22T03:17:29.154Z,2.75
2022-12-22T03:20:14.267Z,2.63
2022-12-22T03:22:59.321Z,2.90
2022-12-22T03:25:44.100Z,2.20
2022-12-22T03:28:11.518Z,2.20
2022-12-22T03:30:39.127Z,2.20
2022-12-22T03:33:06.265Z,1.60
2022-12-22T03:35:32.908Z,2.15
2022-12-22T03:38:03.500Z,2.10
2022-12-22T03:40:33.333Z,2.10
2022-12-22T03:43:18.143Z,1.83
2022-12-22T03:46:03.520Z,1.95
2022-12-22T03:48:30.214Z,2.10
2022-12-22T03:50:56.803Z,1.70
2022-12-22T03:53:23.425Z,1.98
2022-12-22T03:55:50.035Z,1.95
2022-12-22T03:58:16.683Z,1.90
2022-12-22T04:00:43.618Z,1.63
2022-12-22T04:03:10.453Z,1.40
2022-12-22T04:05:37.227Z,1.40
2022-12-22T04:08:03.996Z,1.50
2022-12-22T04:10:49.074Z,1.50
2022-12-22T04:13:15.685Z,1.40
2022-12-22T04:15:42.565Z,1.25
2022-12-22T04:18:09.232Z,1.40
2022-12-22T04:20:35.876Z,1.48
2022-12-22T04:23:02.722Z,1.30
2022-12-22T04:25:29.722Z,1.40
2022-12-22T04:27:56.333Z,1.40
2022-12-22T04:30:23.076Z,1.55
2022-12-22T04:32:50.034Z,1.20
2022-12-22T04:35:16.757Z,1.38
2022-12-22T04:37:43.395Z,1.65
2022-12-22T04:40:10.155Z,1.45
2022-12-22T04:42:36.839Z,1.27
2022-12-22T04:45:03.776Z,1.30
2022-12-22T04:47:30.363Z,1.42
2022-12-22T04:49:57.075Z,1.20
2022-12-22T04:52:23.707Z,1.35
2022-12-22T04:54:50.349Z,1.20
2022-12-22T04:57:16.938Z,1.40
2022-12-22T04:59:43.669Z,1.20
2022-12-22T05:02:10.591Z,1.00
2022-12-22T05:04:37.354Z,1.20
2022-12-22T05:07:04.795Z,1.10
2022-12-22T05:09:31.401Z,1.10
2022-12-22T05:11:58.014Z,1.20
2022-12-22T05:14:24.644Z,1.23
2022-12-22T05:16:51.332Z,1.35
2022-12-22T05:19:18.181Z,1.20
2022-12-22T05:21:45.675Z,1.00
2022-12-22T05:24:12.803Z,1.08
2022-12-22T05:26:39.453Z,0.90
2022-12-22T05:29:06.304Z,0.90
2022-12-22T05:31:32.951Z,0.90
2022-12-22T05:33:59.584Z,0.90
2022-12-22T05:36:26.203Z,0.70
2022-12-22T05:38:52.795Z,0.80
2022-12-22T05:41:19.395Z,0.85
2022-12-22T05:43:46.036Z,1.00
2022-12-22T05:46:12.698Z,0.63
2022-12-22T05:48:40.365Z,0.80
2022-12-22T05:51:10.758Z,0.90
2022-12-22T05:53:38.345Z,0.70
2022-12-22T05:56:05.637Z,0.50
2022-12-22T05:58:33.135Z,0.70
2022-12-22T06:01:00.645Z,0.70
2022-12-22T06:03:28.790Z,0.70
2022-12-22T06:05:56.031Z,0.75
2022-12-22T06:08:23.475Z,0.75
2022-12-22T06:10:50.121Z,0.70
2022-12-22T06:13:17.107Z,0.90
2022-12-22T06:15:44.137Z,0.55
2022-12-22T06:18:10.887Z,0.80
2022-12-22T06:20:37.496Z,0.70
2022-12-22T06:23:04.119Z,0.60
2022-12-22T06:25:30.841Z,0.80
2022-12-22T06:27:57.421Z,0.70
2022-12-22T06:30:30.964Z,0.65
2022-12-22T06:33:00.793Z,0.70
2022-12-22T06:35:27.512Z,0.50
2022-12-22T06:37:54.144Z,0.55
2022-12-22T06:40:20.773Z,0.50
2022-12-22T06:43:08.759Z,0.60
2022-12-22T06:45:38.340Z,0.60
2022-12-22T06:48:05.330Z,0.73
2022-12-22T06:50:31.960Z,0.60
2022-12-22T06:52:58.593Z,0.60
2022-12-22T06:55:25.237Z,0.70
2022-12-22T06:57:52.076Z,0.77
2022-12-22T07:00:19.037Z,0.60
2022-12-22T07:02:45.796Z,0.70
2022-12-22T07:05:12.909Z,0.80
2022-12-22T07:07:39.495Z,0.80
2022-12-22T07:10:06.744Z,0.90
2022-12-22T07:12:33.331Z,0.70
2022-12-22T07:14:59.998Z,0.70
2022-12-22T07:17:26.716Z,1.00
2022-12-22T07:19:53.330Z,0.70
2022-12-22T07:22:25.636Z,0.90
2022-12-22T07:24:56.090Z,0.70
2022-12-22T07:27:22.738Z,1.10
2022-12-22T07:29:49.443Z,0.82
2022-12-22T07:32:16.095Z,0.88
2022-12-22T07:34:42.707Z,1.10
2022-12-22T07:37:09.469Z,1.10
2022-12-22T07:39:36.064Z,1.00
2022-12-22T07:42:21.286Z,1.00
2022-12-22T07:44:47.907Z,0.90
2022-12-22T07:47:14.541Z,1.00
2022-12-22T07:49:59.666Z,1.02
2022-12-22T07:52:26.938Z,1.02
2022-12-22T07:54:53.575Z,1.00
2022-12-22T07:57:20.147Z,0.90
2022-12-22T07:59:46.750Z,0.88
2022-12-22T08:02:13.572Z,0.93
2022-12-22T08:04:40.298Z,0.77
2022-12-22T08:07:06.983Z,0.90
2022-12-22T08:09:33.611Z,1.23
2022-12-22T08:12:00.216Z,0.60
2022-12-22T08:14:26.838Z,0.98
2022-12-22T08:16:53.619Z,0.80
2022-12-22T08:19:20.498Z,0.80
2022-12-22T08:21:52.879Z,0.80
2022-12-22T08:24:20.208Z,2.30
2022-12-22T08:26:49.825Z,0.90
2022-12-22T08:29:39.470Z,0.70
2022-12-22T08:32:06.543Z,1.05
2022-12-22T08:34:33.386Z,1.10
2022-12-22T08:37:02.940Z,0.88
2022-12-22T08:39:35.064Z,1.00
2022-12-22T08:42:05.891Z,1.00
2022-12-22T08:44:32.520Z,0.85
2022-12-22T08:46:59.968Z,0.90
2022-12-22T08:49:26.868Z,0.90
2022-12-22T08:51:53.824Z,1.00
2022-12-22T08:54:20.970Z,0.93
2022-12-22T08:56:47.804Z,0.90
2022-12-22T08:59:15.905Z,1.00
2022-12-22T09:01:47.998Z,1.85
2022-12-22T09:04:16.283Z,1.17
2022-12-22T09:06:43.103Z,0.90
2022-12-22T09:09:11.338Z,1.00
2022-12-22T09:11:39.803Z,1.10
2022-12-22T09:14:08.129Z,1.20
2022-12-22T09:16:35.219Z,1.38
2022-12-22T09:19:02.481Z,0.90
2022-12-22T09:21:30.137Z,1.10
2022-12-22T09:23:57.327Z,0.75
2022-12-22T09:26:26.419Z,0.82
2022-12-22T09:28:53.645Z,1.17
2022-12-22T09:31:22.157Z,0.90
2022-12-22T09:33:49.121Z,1.23
2022-12-22T09:36:24.597Z,0.90
2022-12-22T09:38:51.670Z,0.90
2022-12-22T09:41:22.375Z,1.05
2022-12-22T09:43:49.108Z,0.90
2022-12-22T09:46:24.246Z,1.23
2022-12-22T09:48:51.920Z,1.25
2022-12-22T09:51:26.119Z,0.90
2022-12-22T09:54:01.276Z,1.00
2022-12-22T09:56:29.469Z,1.23
2022-12-22T09:58:57.060Z,1.15
2022-12-22T10:01:30.836Z,0.95
2022-12-22T10:04:36.692Z,0.85
2022-12-22T10:07:26.804Z,1.13
2022-12-22T10:09:53.564Z,1.00
2022-12-22T10:12:22.965Z,1.00
2022-12-22T10:17:31.594Z,1.00
2022-12-22T10:20:10.789Z,1.00
2022-12-22T10:22:49.300Z,1.17
2022-12-22T10:25:35.787Z,1.00
2022-12-22T10:28:22.654Z,1.00
2022-12-22T10:30:49.260Z,1.02
2022-12-22T10:33:18.883Z,1.10
2022-12-22T10:35:58.880Z,0.98
2022-12-22T10:38:31.646Z,1.08
2022-12-22T10:41:19.812Z,1.67
2022-12-22T10:43:52.907Z,1.00
2022-12-22T10:46:29.084Z,1.30
2022-12-22T10:49:28.722Z,1.00
2022-12-22T10:51:57.392Z,1.52
2022-12-22T10:54:26.549Z,1.20
2022-12-22T10:57:18.755Z,1.00
2022-12-22T11:00:34.918Z,0.80
2022-12-22T11:03:04.670Z,1.05
2022-12-22T11:05:33.179Z,0.82
2022-12-22T11:08:12.626Z,0.90
2022-12-22T11:13:19.676Z,0.65
2022-12-22T11:16:12.621Z,0.80
2022-12-22T11:18:57.400Z,1.00
2022-12-22T11:21:42.408Z,0.80
2022-12-22T11:24:12.067Z,0.60
2022-12-22T11:26:38.615Z,0.85
2022-12-22T11:29:42.051Z,0.90
2022-12-22T11:32:43.970Z,0.80
2022-12-22T11:35:36.704Z,1.10
2022-12-22T11:38:35.632Z,1.25
2022-12-22T11:41:29.452Z,1.05
2022-12-22T11:44:18.460Z,0.90
2022-12-22T11:47:03.939Z,0.82
2022-12-22T11:51:02.326Z,1.05
2022-12-22T11:53:12.348Z,0.73
2022-12-22T11:56:03.579Z,1.00
2022-12-22T11:59:26.268Z,0.90
2022-12-22T12:02:35.781Z,0.82
2022-12-22T12:05:08.244Z,0.80
2022-12-22T12:07:58.142Z,0.93
2022-12-22T12:10:32.006Z,0.98
2022-12-22T12:13:01.579Z,1.00
2022-12-22T12:15:32.593Z,0.88
2022-12-22T12:18:30.191Z,0.93
2022-12-22T12:21:26.217Z,0.60
2022-12-22T12:24:26.405Z,0.90
2022-12-22T12:26:58.901Z,0.70
2022-12-22T12:29:27.354Z,0.77
2022-12-22T12:32:10.627Z,0.80
2022-12-22T12:34:43.071Z,0.95
2022-12-22T12:37:26.604Z,0.77
2022-12-22T12:40:05.841Z,0.80
2022-12-22T12:42:45.417Z,0.90
2022-12-22T12:45:35.767Z,0.80
2022-12-22T12:48:20.924Z,0.70
2022-12-22T12:50:57.966Z,1.10
2022-12-22T12:53:26.416Z,0.85
2022-12-22T12:55:53.119Z,0.93
2022-12-22T12:58:40.547Z,1.10
2022-12-22T13:01:30.318Z,1.00
2022-12-22T13:04:05.407Z,0.80
2022-12-22T13:06:50.625Z,1.08
2022-12-22T13:09:50.090Z,0.90
2022-12-22T13:12:51.128Z,0.90
2022-12-22T13:15:31.712Z,1.00
2022-12-22T13:17:59.428Z,1.40
2022-12-22T13:20:33.953Z,1.20
2022-12-22T13:23:03.533Z,1.25
2022-12-22T13:25:42.591Z,1.23
2022-12-22T13:28:16.272Z,0.90
2022-12-22T13:30:51.814Z,1.17
2022-12-22T13:33:22.871Z,1.20
2022-12-22T13:35:56.577Z,1.13
2022-12-22T13:38:32.161Z,1.25
2022-12-22T13:41:02.799Z,1.05
2022-12-22T13:43:32.317Z,1.38
2022-12-22T13:48:46.325Z,1.00
2022-12-22T13:51:22.706Z,1.05
2022-12-22T13:54:11.990Z,1.60
2022-12-22T13:56:48.710Z,1.60
2022-12-22T13:59:36.737Z,1.90
2022-12-22T14:02:23.757Z,2.45
2022-12-22T14:05:10.208Z,3.03
2022-12-22T14:07:38.510Z,3.40
2022-12-22T14:10:05.897Z,3.25
2022-12-22T14:12:44.651Z,3.00
2022-12-22T14:15:20.117Z,1.33
2022-12-22T14:17:53.941Z,2.60
2022-12-22T14:20:36.715Z,2.17
2022-12-22T14:23:08.866Z,2.47
2022-12-22T14:25:41.979Z,1.88
2022-12-22T14:28:47.589Z,2.10
2022-12-22T14:31:14.336Z,1.60
2022-12-22T14:33:54.627Z,2.05
2022-12-22T14:36:26.748Z,1.60
2022-12-22T14:39:02.318Z,1.83
2022-12-22T14:41:51.885Z,1.90
2022-12-22T14:44:24.057Z,1.92
2022-12-22T14:47:18.002Z,1.77
2022-12-22T14:50:16.707Z,1.58
2022-12-22T14:52:51.673Z,1.67
2022-12-22T14:55:41.326Z,1.55
2022-12-22T14:58:13.883Z,1.20
2022-12-22T15:00:46.029Z,1.30
2022-12-22T15:03:32.985Z,1.30
2022-12-22T15:06:38.644Z,1.27
2022-12-22T15:09:06.612Z,1.60
2022-12-22T15:11:35.389Z,1.58
2022-12-22T15:14:02.977Z,1.40
2022-12-22T15:16:29.846Z,2.17
2022-12-22T15:18:57.233Z,1.88
2022-12-22T15:21:24.333Z,1.75
2022-12-22T15:23:51.049Z,1.90
2022-12-22T15:26:17.669Z,1.65
2022-12-22T15:28:44.346Z,1.58
2022-12-22T15:31:16.460Z,2.00
2022-12-22T15:33:44.976Z,2.00
2022-12-22T15:36:13.993Z,2.22
2022-12-22T15:38:41.310Z,2.40
2022-12-22T15:41:08.280Z,2.28
2022-12-22T15:46:22.774Z,2.28
2022-12-22T15:48:49.573Z,2.55
2022-12-22T15:51:28.001Z,2.40
2022-12-22T15:53:57.256Z,2.53
2022-12-22T15:56:27.136Z,2.55
2022-12-22T15:58:54.320Z,2.33
2022-12-22T16:01:20.957Z,2.33
2022-12-22T16:03:47.819Z,2.58
2022-12-22T16:06:16.858Z,2.75
2022-12-22T16:08:51.157Z,2.45
2022-12-22T16:11:18.776Z,2.85
2022-12-22T16:13:46.405Z,2.90
2022-12-22T16:16:13.158Z,3.40
2022-12-22T16:18:39.915Z,3.60
2022-12-22T16:21:31.205Z,3.30
2022-12-22T16:23:58.745Z,4.53
2022-12-22T16:26:25.407Z,3.65
2022-12-22T16:28:52.401Z,3.90
2022-12-22T16:31:21.907Z,3.95
2022-12-22T16:33:48.969Z,4.00
2022-12-22T16:36:15.813Z,3.80
2022-12-22T16:38:43.184Z,3.78
2022-12-22T16:41:24.562Z,3.75
2022-12-22T16:43:59.469Z,3.90
2022-12-22T16:46:30.564Z,4.05
2022-12-22T16:49:01.107Z,4.50
2022-12-22T16:51:34.221Z,4.68
2022-12-22T16:54:01.956Z,4.22
2022-12-22T16:56:31.578Z,4.60
2022-12-22T16:58:58.594Z,3.85
2022-12-22T17:01:36.376Z,5.63
2022-12-22T17:04:15.567Z,4.93
2022-12-22T17:06:43.127Z,4.60
2022-12-22T17:09:24.778Z,4.68
2022-12-22T17:11:54.308Z,5.03
2022-12-22T17:14:31.596Z,5.25
2022-12-22T17:17:01.189Z,4.95
2022-12-22T17:19:27.861Z,5.43
2022-12-22T17:21:56.720Z,5.57
2022-12-22T17:24:28.286Z,5.55
2022-12-22T17:26:59.372Z,6.43
2022-12-22T17:29:26.089Z,6.20
2022-12-22T17:31:56.504Z,6.25
2022-12-22T17:34:23.882Z,6.93
2022-12-22T17:36:51.169Z,6.85
2022-12-22T17:39:21.791Z,7.35
2022-12-22T17:41:56.213Z,6.30
2022-12-22T17:44:25.551Z,6.30
2022-12-22T17:46:52.324Z,6.50
2022-12-22T17:49:22.339Z,6.22
2022-12-22T17:51:49.513Z,6.18
2022-12-22T17:54:26.362Z,6.30
2022-12-22T17:57:03.817Z,6.38
2022-12-22T17:59:31.001Z,6.15
2022-12-22T18:01:57.967Z,6.18
2022-12-22T18:04:24.675Z,6.25
2022-12-22T18:06:51.605Z,6.80
2022-12-22T18:09:21.893Z,6.65
2022-12-22T18:11:49.147Z,8.18
2022-12-22T18:14:15.936Z,7.68
2022-12-22T18:16:44.082Z,7.07
2022-12-22T18:19:10.808Z,7.28
2022-12-22T18:21:37.953Z,8.00
2022-12-22T18:24:04.897Z,8.02
2022-12-22T18:26:31.949Z,8.00
2022-12-22T18:28:58.917Z,7.80
2022-12-22T18:31:26.038Z,8.45
2022-12-22T18:33:52.883Z,8.40
2022-12-22T18:36:33.130Z,9.95
2022-12-22T18:39:01.639Z,11.25
2022-12-22T18:41:32.959Z,9.13
2022-12-22T18:43:59.624Z,8.07
2022-12-22T18:46:26.366Z,6.68
2022-12-22T18:48:55.208Z,7.55
2022-12-22T18:51:25.688Z,7.13
2022-12-22T18:53:54.582Z,7.55
2022-12-22T18:56:21.554Z,7.65
2022-12-22T18:58:48.517Z,7.10
2022-12-22T19:01:23.855Z,6.82
2022-12-22T19:03:54.366Z,8.27
2022-12-22T19:06:22.866Z,8.25
2022-12-22T19:08:50.127Z,9.13
2022-12-22T19:11:21.437Z,9.77
2022-12-22T19:13:51.235Z,9.13
2022-12-22T19:16:21.131Z,8.75
2022-12-22T19:18:47.776Z,8.25
2022-12-22T19:21:16.144Z,9.60
2022-12-22T19:23:43.446Z,9.27
2022-12-22T19:26:21.961Z,9.90
2022-12-22T19:28:52.453Z,9.30
2022-12-22T19:31:27.694Z,9.57
2022-12-22T19:33:57.522Z,8.88
2022-12-22T19:36:26.971Z,10.70
2022-12-22T19:41:47.265Z,9.00
2022-12-22T19:44:22.082Z,10.05
2022-12-22T19:46:49.687Z,8.98
2022-12-22T19:49:29.776Z,9.15
2022-12-22T19:51:56.967Z,7.93
2022-12-22T19:54:24.078Z,8.38
2022-12-22T19:56:56.241Z,7.65
2022-12-22T19:59:38.126Z,8.43
2022-12-22T20:02:21.218Z,7.80
2022-12-22T20:04:49.084Z,7.80
2022-12-22T20:07:17.568Z,8.43
2022-12-22T20:09:44.519Z,8.73
2022-12-22T20:12:35.202Z,7.70
2022-12-22T20:15:13.435Z,7.18
2022-12-22T20:17:40.070Z,7.28
2022-12-22T20:20:07.361Z,7.05
2022-12-22T20:22:34.350Z,5.78
2022-12-22T20:25:01.047Z,6.03
2022-12-22T20:27:32.969Z,5.90
2022-12-22T20:29:59.848Z,5.82
2022-12-22T20:32:28.392Z,5.85
2022-12-22T20:34:55.817Z,5.50
2022-12-22T20:37:22.475Z,5.82
2022-12-22T20:39:49.125Z,5.75
2022-12-22T20:42:20.254Z,5.45
2022-12-22T20:45:04.123Z,5.32
2022-12-22T20:47:33.623Z,4.15
2022-12-22T20:50:00.697Z,4.85
2022-12-22T20:52:27.480Z,4.57
2022-12-22T20:54:54.096Z,4.10
2022-12-22T20:57:22.683Z,4.18
2022-12-22T20:59:55.727Z,3.87
2022-12-22T21:02:28.268Z,3.58
2022-12-22T21:04:55.293Z,4.00
2022-12-22T21:07:21.945Z,3.75
2022-12-22T21:09:48.668Z,3.60
2022-12-22T21:12:15.343Z,3.65
2022-12-22T21:14:42.058Z,3.58
2022-12-22T21:17:19.376Z,3.47
2022-12-22T21:19:46.359Z,2.78
2022-12-22T21:22:13.957Z,3.63
2022-12-22T21:24:41.936Z,3.47
2022-12-22T21:27:16.659Z,3.63
2022-12-22T21:29:43.345Z,3.60
2022-12-22T21:32:16.331Z,3.72
2022-12-22T21:34:43.053Z,3.92
2022-12-22T21:37:17.573Z,4.07
2022-12-22T21:39:44.978Z,4.07
2022-12-22T21:42:16.215Z,3.30
2022-12-22T21:44:44.672Z,3.42
2022-12-22T21:47:17.872Z,3.72
2022-12-22T21:49:44.510Z,4.13
2022-12-22T21:52:11.179Z,4.03
2022-12-22T21:54:37.848Z,3.35
2022-12-22T21:57:04.868Z,4.05
2022-12-22T21:59:31.573Z,3.85
2022-12-22T22:01:58.376Z,3.85
2022-12-22T22:04:25.306Z,3.45
2022-12-22T22:06:51.961Z,4.15
2022-12-22T22:09:18.628Z,4.13
2022-12-22T22:12:04.027Z,3.10
2022-12-22T22:14:30.669Z,4.00
2022-12-22T22:16:57.309Z,4.35
2022-12-22T22:19:23.988Z,4.22
2022-12-22T22:21:50.584Z,3.92
2022-12-22T22:24:17.276Z,4.68
2022-12-22T22:26:49.281Z,4.05
2022-12-22T22:29:16.005Z,3.92
2022-12-22T22:31:42.855Z,4.22
2022-12-22T22:34:09.599Z,4.55
2022-12-22T22:36:36.274Z,4.43
2022-12-22T22:39:03.062Z,4.30
2022-12-22T22:41:33.144Z,4.32
2022-12-22T22:44:03.188Z,4.88
2022-12-22T22:46:29.838Z,4.45
2022-12-22T22:48:58.677Z,4.95
2022-12-22T22:51:25.572Z,4.30
2022-12-22T22:53:52.278Z,3.88
2022-12-22T22:56:18.919Z,4.55
2022-12-22T22:58:45.546Z,4.38
2022-12-22T23:01:12.343Z,4.68
2022-12-22T23:03:39.013Z,4.07
2022-12-22T23:06:08.198Z,4.28
2022-12-22T23:08:35.931Z,3.72
2022-12-22T23:11:03.961Z,3.50
2022-12-22T23:13:31.058Z,4.13
2022-12-22T23:16:03.489Z,3.53
2022-12-22T23:18:31.651Z,3.97
2022-12-22T23:20:59.853Z,3.80
2022-12-22T23:23:27.436Z,3.47
2022-12-22T23:25:54.159Z,4.20
2022-12-22T23:28:20.782Z,3.65
2022-12-22T23:30:49.160Z,3.53
2022-12-22T23:33:15.921Z,3.50
2022-12-22T23:35:43.004Z,3.92
2022-12-22T23:38:09.968Z,3.58
2022-12-22T23:40:55.969Z,3.63
2022-12-22T23:43:22.655Z,3.65
2022-12-22T23:45:49.327Z,3.58
2022-12-22T23:48:16.081Z,3.55
2022-12-22T23:50:46.413Z,3.40
2022-12-22T23:53:13.419Z,3.53
2022-12-22T23:55:44.761Z,3.97
2022-12-22T23:58:11.466Z,3.63
